Time;durP1;ratioP1;P1;durP2;ratioP2;P2;SDS_P1;SDS_P2;PMS_P1;PMS_P2;Temp;Humidity;BMP_temperature;BMP_pressure;BME280_temperature;BME280_humidity;BME280_pressure;Samples;Min_cycle;Max_cycle;Signal;HPM_P1;HPM_P2
2022/02/01 00:02:01;;;;;;;7.32;3.28;;;;;;;;;;5026904;28;20029;-49
2022/02/01 00:04:37;;;;;;;5.15;2.67;;;;;;;;;;5043692;28;20459;-50
2022/02/01 00:09:43;;;;;;;6.43;2.60;;;;;;;;;;5033988;28;20095;-47
2022/02/01 00:12:41;;;;;;;6.60;2.50;;;;;;;;;;5043672;28;20106;-49
2022/02/01 00:15:55;;;;;;;5.55;2.50;;;;;;;;;;5045926;28;20036;-46
2022/02/01 00:36:40;;;;;;;3.10;1.50;;;;;;;;;;5045414;28;20163;-48
2022/02/01 00:39:13;;;;;;;2.58;1.33;;;;;;;;;;5031249;28;20378;-47
2022/02/01 00:41:47;;;;;;;3.60;1.65;;;;;;;;;;5046519;28;20027;-47
2022/02/01 00:44:13;;;;;;;;;;;;;;;;;;5046626;28;20020;-47
2022/02/01 00:46:39;;;;;;;4.20;1.70;;;;;;;;;;5046351;28;19905;-47
2022/02/01 00:49:05;;;;;;;2.65;1.60;;;;;;;;;;5044962;28;20041;-46
2022/02/01 00:51:31;;;;;;;2.55;1.55;;;;;;;;;;5046012;28;20036;-47
2022/02/01 00:53:58;;;;;;;2.92;1.50;;;;;;;;;;5026697;28;20360;-47
2022/02/01 00:56:25;;;;;;;2.63;1.30;;;;;;;;;;5025948;28;20029;-48
2022/02/01 00:58:52;;;;;;;2.80;1.48;;;;;;;;;;5025435;28;20390;-46
2022/02/01 01:01:18;;;;;;;3.35;1.80;;;;;;;;;;5039044;28;20021;-47
2022/02/01 01:03:45;;;;;;;2.40;1.55;;;;;;;;;;5065319;28;20082;-47
2022/02/01 01:06:11;;;;;;;4.68;1.75;;;;;;;;;;5065042;28;20085;-46
2022/02/01 01:08:37;;;;;;;1.83;1.10;;;;;;;;;;5051080;28;20488;-46
2022/02/01 01:11:04;;;;;;;3.33;1.20;;;;;;;;;;5025666;28;20022;-46
2022/02/01 01:16:15;;;;;;;2.92;1.52;;;;;;;;;;5025865;28;20025;-46
2022/02/01 01:54:00;;;;;;;5.68;1.70;;;;;;;;;;5045539;28;20032;-47
2022/02/01 01:56:27;;;;;;;2.67;1.38;;;;;;;;;;5045269;28;20045;-47
2022/02/01 01:58:53;;;;;;;2.45;1.40;;;;;;;;;;5042989;28;20033;-46
2022/02/01 02:01:19;;;;;;;3.90;1.67;;;;;;;;;;5045168;28;20029;-46
2022/02/01 02:03:46;;;;;;;5.43;1.55;;;;;;;;;;5044949;28;20072;-48
2022/02/01 02:06:14;;;;;;;3.75;2.03;;;;;;;;;;5045634;28;20112;-46
2022/02/01 02:08:49;;;;;;;4.47;2.05;;;;;;;;;;5044377;28;20552;-46
2022/02/01 02:11:23;;;;;;;4.88;2.40;;;;;;;;;;5044975;28;20585;-46
2022/02/01 02:16:36;;;;;;;3.08;1.85;;;;;;;;;;5024884;28;20087;-48
2022/02/01 02:19:03;;;;;;;4.43;1.65;;;;;;;;;;5023747;28;20518;-46
2022/02/01 02:21:29;;;;;;;4.80;2.00;;;;;;;;;;5025065;28;20382;-46
2022/02/01 02:23:55;;;;;;;5.10;1.77;;;;;;;;;;5034226;28;20025;-46
2022/02/01 02:26:21;;;;;;;3.45;1.70;;;;;;;;;;5024835;28;20029;-47
2022/02/01 02:28:48;;;;;;;3.75;1.45;;;;;;;;;;5024765;28;20027;-48
2022/02/01 02:31:14;;;;;;;3.35;1.50;;;;;;;;;;5024704;28;20026;-46
2022/02/01 02:33:40;;;;;;;4.70;1.98;;;;;;;;;;5025690;28;22207;-46
2022/02/01 02:36:15;;;;;;;3.75;1.67;;;;;;;;;;5045161;28;20491;-46
2022/02/01 02:46:24;;;;;;;4.68;1.73;;;;;;;;;;5045010;28;20266;-46
2022/02/01 02:48:51;;;;;;;4.55;1.75;;;;;;;;;;5044416;28;20029;-45
2022/02/01 02:51:19;;;;;;;4.63;2.50;;;;;;;;;;5044558;28;20032;-47
2022/02/01 02:53:45;;;;;;;6.45;2.92;;;;;;;;;;5043029;28;20481;-46
2022/02/01 02:56:11;;;;;;;8.43;3.83;;;;;;;;;;5045027;28;20543;-46
2022/02/01 02:58:37;;;;;;;12.02;5.60;;;;;;;;;;5045177;28;20035;-46
2022/02/01 03:01:04;;;;;;;12.20;5.78;;;;;;;;;;5048485;28;20029;-47
2022/02/01 03:03:30;;;;;;;11.35;5.72;;;;;;;;;;5048645;28;20032;-47
2022/02/01 03:05:56;;;;;;;9.38;4.55;;;;;;;;;;5048420;28;20090;-47
2022/02/01 03:08:22;;;;;;;10.15;4.53;;;;;;;;;;5046847;28;20036;-47
2022/02/01 03:10:48;;;;;;;7.88;4.07;;;;;;;;;;5048133;28;20021;-48
2022/02/01 03:13:20;;;;;;;10.00;4.28;;;;;;;;;;5048605;28;20035;-46
2022/02/01 03:16:03;;;;;;;7.75;3.25;;;;;;;;;;5048226;28;20116;-45
2022/02/01 03:21:14;;;;;;;6.82;3.00;;;;;;;;;;5048183;28;20059;-46
2022/02/01 03:23:40;;;;;;;6.10;3.40;;;;;;;;;;5048627;28;20036;-47
2022/02/01 03:26:06;;;;;;;4.13;2.53;;;;;;;;;;5048422;28;20458;-47
2022/02/01 03:28:33;;;;;;;5.85;2.80;;;;;;;;;;5048540;28;21120;-46
2022/02/01 03:31:00;;;;;;;5.28;2.50;;;;;;;;;;5046938;28;20096;-45
2022/02/01 03:33:26;;;;;;;4.70;2.10;;;;;;;;;;5044112;28;20068;-45
2022/02/01 03:35:52;;;;;;;5.75;2.20;;;;;;;;;;5048357;28;20090;-46
2022/02/01 03:38:18;;;;;;;5.57;2.17;;;;;;;;;;5032950;28;20033;-48
2022/02/01 03:40:45;;;;;;;4.78;2.60;;;;;;;;;;5043733;28;20025;-46
2022/02/01 03:43:12;;;;;;;3.92;2.00;;;;;;;;;;5048688;28;20063;-47
2022/02/01 03:45:38;;;;;;;4.80;1.98;;;;;;;;;;5046850;28;20553;-45
2022/02/01 03:48:04;;;;;;;3.35;1.42;;;;;;;;;;5048284;28;20422;-46
2022/02/01 03:50:31;;;;;;;3.38;1.70;;;;;;;;;;5042354;28;20033;-45
2022/02/01 03:52:57;;;;;;;3.20;1.70;;;;;;;;;;5047660;28;20485;-47
2022/02/01 03:55:23;;;;;;;3.40;1.58;;;;;;;;;;5048030;28;20087;-46
2022/02/01 03:57:49;;;;;;;5.25;1.77;;;;;;;;;;5047277;28;20109;-46
2022/02/01 04:00:16;;;;;;;6.95;1.90;;;;;;;;;;5046172;28;20024;-46
2022/02/01 04:02:42;;;;;;;4.15;2.00;;;;;;;;;;5047436;28;20059;-46
2022/02/01 04:05:08;;;;;;;2.05;1.23;;;;;;;;;;5047424;28;20071;-46
2022/02/01 04:07:35;;;;;;;4.25;1.67;;;;;;;;;;5047021;28;20040;-45
2022/02/01 04:10:02;;;;;;;2.97;1.58;;;;;;;;;;5045798;28;20618;-47
2022/02/01 04:12:29;;;;;;;3.33;1.80;;;;;;;;;;5047587;28;20040;-47
2022/02/01 04:14:57;;;;;;;5.00;1.30;;;;;;;;;;5047264;28;20531;-46
2022/02/01 04:17:23;;;;;;;4.82;1.70;;;;;;;;;;5045649;28;20538;-47
2022/02/01 04:19:49;;;;;;;3.75;1.30;;;;;;;;;;5046386;28;20028;-47
2022/02/01 04:22:16;;;;;;;3.10;1.23;;;;;;;;;;5047189;28;20389;-46
2022/02/01 04:24:43;;;;;;;3.47;1.50;;;;;;;;;;5047226;28;20455;-46
2022/02/01 04:27:44;;;;;;;2.65;1.50;;;;;;;;;;5047810;28;20155;-48
2022/02/01 04:30:09;;;;;;;2.40;1.27;;;;;;;;;;5046247;28;20380;-47
2022/02/01 04:32:36;;;;;;;2.75;0.98;;;;;;;;;;5047004;28;20032;-46
2022/02/01 04:35:02;;;;;;;3.72;1.13;;;;;;;;;;5047269;28;20139;-47
2022/02/01 04:37:28;;;;;;;2.97;1.20;;;;;;;;;;5046776;28;20496;-47
2022/02/01 04:39:54;;;;;;;2.13;1.10;;;;;;;;;;5044508;28;20021;-49
2022/02/01 04:42:20;;;;;;;2.25;1.10;;;;;;;;;;5046523;28;20025;-46
2022/02/01 04:44:46;;;;;;;2.65;1.30;;;;;;;;;;5045225;28;20485;-48
2022/02/01 04:47:12;;;;;;;3.03;1.10;;;;;;;;;;5046291;28;20554;-49
2022/02/01 04:49:39;;;;;;;3.28;1.60;;;;;;;;;;5041181;28;20520;-46
2022/02/01 04:52:05;;;;;;;2.50;1.17;;;;;;;;;;5043790;28;20094;-47
2022/02/01 04:54:31;;;;;;;2.08;1.02;;;;;;;;;;5046425;28;20128;-48
2022/02/01 04:56:58;;;;;;;3.15;0.93;;;;;;;;;;5046559;28;20032;-47
2022/02/01 04:59:24;;;;;;;3.28;1.30;;;;;;;;;;5044826;28;20033;-46
2022/02/01 05:01:50;;;;;;;3.33;1.13;;;;;;;;;;5046519;28;20246;-46
2022/02/01 05:04:19;;;;;;;3.55;1.08;;;;;;;;;;5045052;28;20021;-48
2022/02/01 05:06:50;;;;;;;2.60;0.93;;;;;;;;;;5044613;28;20128;-46
2022/02/01 05:09:17;;;;;;;1.92;1.25;;;;;;;;;;5043670;28;20033;-46
2022/02/01 05:11:43;;;;;;;2.60;1.40;;;;;;;;;;5025575;28;20041;-47
2022/02/01 05:14:14;;;;;;;2.97;1.50;;;;;;;;;;5027134;28;20048;-48
2022/02/01 05:21:55;;;;;;;3.05;1.25;;;;;;;;;;5045134;28;20056;-50
2022/02/01 05:24:22;;;;;;;4.53;1.35;;;;;;;;;;5045673;28;20519;-46
2022/02/01 05:26:50;;;;;;;3.15;1.20;;;;;;;;;;5046134;28;20108;-47
2022/02/01 05:29:20;;;;;;;2.15;1.30;;;;;;;;;;5044528;28;20136;-46
2022/02/01 05:31:48;;;;;;;3.45;1.17;;;;;;;;;;5044747;28;20033;-46
2022/02/01 05:34:15;;;;;;;2.97;1.33;;;;;;;;;;5046047;28;20036;-48
2022/02/01 05:36:41;;;;;;;3.13;1.60;;;;;;;;;;5038190;28;20493;-46
2022/02/01 05:39:15;;;;;;;2.28;1.30;;;;;;;;;;5045777;28;20115;-46
2022/02/01 05:41:43;;;;;;;5.35;2.00;;;;;;;;;;5025481;28;20212;-46
2022/02/01 05:44:09;;;;;;;2.45;1.15;;;;;;;;;;5025709;28;20022;-50
2022/02/01 05:46:35;;;;;;;6.22;1.25;;;;;;;;;;5025225;28;20032;-47
2022/02/01 05:49:02;;;;;;;6.03;1.95;;;;;;;;;;5025956;28;20548;-46
2022/02/01 05:51:28;;;;;;;6.32;1.65;;;;;;;;;;5025326;28;20126;-46
2022/02/01 05:53:55;;;;;;;5.03;1.83;;;;;;;;;;5026468;28;20539;-46
2022/02/01 05:56:21;;;;;;;4.25;2.42;;;;;;;;;;5038100;28;20087;-46
2022/02/01 05:58:47;;;;;;;7.03;3.25;;;;;;;;;;5032016;28;20035;-48
2022/02/01 06:01:13;;;;;;;6.05;3.40;;;;;;;;;;5045566;28;20535;-46
2022/02/01 06:03:39;;;;;;;4.60;2.90;;;;;;;;;;5046197;28;20071;-48
2022/02/01 06:06:07;;;;;;;5.95;3.00;;;;;;;;;;5045584;28;20388;-48
2022/02/01 06:08:33;;;;;;;4.40;2.30;;;;;;;;;;5034438;28;20026;-48
2022/02/01 06:10:59;;;;;;;4.03;1.88;;;;;;;;;;5040007;28;20032;-46
2022/02/01 06:13:26;;;;;;;5.03;1.42;;;;;;;;;;5046154;28;20020;-47
2022/02/01 06:15:52;;;;;;;4.95;1.85;;;;;;;;;;5047087;28;20071;-49
2022/02/01 06:18:18;;;;;;;2.28;1.63;;;;;;;;;;5046176;28;20033;-47
2022/02/01 06:20:44;;;;;;;4.15;1.45;;;;;;;;;;5043585;28;20040;-46
2022/02/01 06:23:14;;;;;;;2.83;1.23;;;;;;;;;;5046230;28;20048;-46
2022/02/01 06:28:12;;;;;;;2.72;1.67;;;;;;;;;;5026279;28;20087;-46
2022/02/01 06:30:38;;;;;;;3.65;1.45;;;;;;;;;;5026252;28;20044;-48
2022/02/01 06:33:04;;;;;;;2.45;1.50;;;;;;;;;;5026082;28;20525;-48
2022/02/01 06:35:30;;;;;;;5.38;1.60;;;;;;;;;;5025856;28;20091;-47
2022/02/01 06:37:57;;;;;;;4.13;1.42;;;;;;;;;;5025750;28;20025;-47
2022/02/01 06:40:23;;;;;;;2.78;1.15;;;;;;;;;;5033704;28;20033;-45
2022/02/01 06:42:49;;;;;;;2.80;1.20;;;;;;;;;;5029813;28;20689;-46
2022/02/01 06:45:15;;;;;;;3.72;1.10;;;;;;;;;;5027252;28;20032;-46
2022/02/01 06:47:41;;;;;;;2.67;1.25;;;;;;;;;;5042696;28;20036;-48
2022/02/01 06:50:08;;;;;;;1.65;1.00;;;;;;;;;;5043207;28;20041;-46
2022/02/01 06:52:35;;;;;;;3.55;1.58;;;;;;;;;;5042127;28;20032;-46
2022/02/01 06:55:03;;;;;;;5.22;2.33;;;;;;;;;;5041714;28;20033;-46
2022/02/01 06:57:35;;;;;;;3.72;1.65;;;;;;;;;;5033710;28;20507;-46
2022/02/01 07:00:02;;;;;;;5.28;1.90;;;;;;;;;;5031891;28;20025;-45
2022/02/01 07:02:28;;;;;;;2.72;1.50;;;;;;;;;;5035397;28;20025;-47
2022/02/01 07:04:54;;;;;;;4.70;1.80;;;;;;;;;;5030239;28;20468;-46
2022/02/01 07:07:20;;;;;;;5.00;1.50;;;;;;;;;;5036709;28;20495;-45
2022/02/01 07:09:46;;;;;;;4.85;1.58;;;;;;;;;;5031397;28;20082;-48
2022/02/01 07:12:12;;;;;;;3.70;1.65;;;;;;;;;;5033042;28;20373;-45
2022/02/01 07:14:38;;;;;;;2.65;1.20;;;;;;;;;;5035572;28;20582;-45
2022/02/01 07:17:04;;;;;;;2.30;1.38;;;;;;;;;;5029554;28;20516;-45
2022/02/01 07:19:30;;;;;;;3.72;1.60;;;;;;;;;;5026182;28;20104;-49
2022/02/01 07:21:56;;;;;;;2.10;1.30;;;;;;;;;;5036711;28;20500;-45
2022/02/01 07:24:29;;;;;;;2.03;1.00;;;;;;;;;;5033311;28;20544;-49
2022/02/01 07:26:58;;;;;;;3.97;1.48;;;;;;;;;;5042605;28;20424;-46
2022/02/01 07:29:25;;;;;;;2.67;1.42;;;;;;;;;;5035779;28;20028;-45
2022/02/01 07:31:51;;;;;;;4.60;1.98;;;;;;;;;;5046786;28;20025;-48
2022/02/01 07:34:17;;;;;;;2.80;1.63;;;;;;;;;;5028051;28;20548;-47
2022/02/01 07:36:44;;;;;;;4.10;1.73;;;;;;;;;;5026203;28;20520;-48
2022/02/01 07:39:11;;;;;;;4.82;2.17;;;;;;;;;;5029099;28;20366;-46
2022/02/01 07:41:37;;;;;;;4.43;1.83;;;;;;;;;;5026078;28;20501;-46
2022/02/01 07:44:03;;;;;;;3.42;1.75;;;;;;;;;;5027744;28;20025;-47
2022/02/01 07:46:31;;;;;;;4.18;1.63;;;;;;;;;;5030711;28;20425;-46
2022/02/01 07:48:57;;;;;;;4.30;1.90;;;;;;;;;;5029614;28;20172;-45
2022/02/01 07:51:23;;;;;;;4.00;1.90;;;;;;;;;;5029363;28;20539;-46
2022/02/01 07:53:49;;;;;;;5.32;2.15;;;;;;;;;;5029148;28;20366;-49
2022/02/01 07:56:15;;;;;;;3.58;1.60;;;;;;;;;;5029129;28;20397;-48
2022/02/01 07:58:41;;;;;;;5.07;1.70;;;;;;;;;;5028985;28;20509;-46
2022/02/01 08:01:07;;;;;;;2.25;1.40;;;;;;;;;;5029948;28;20401;-46
2022/02/01 08:03:33;;;;;;;3.05;1.33;;;;;;;;;;5029403;28;20025;-47
2022/02/01 08:05:59;;;;;;;4.10;1.65;;;;;;;;;;5029134;28;20048;-48
2022/02/01 08:08:25;;;;;;;3.47;1.35;;;;;;;;;;5028927;28;20036;-50
2022/02/01 08:10:54;;;;;;;3.38;1.30;;;;;;;;;;5028955;28;20026;-47
2022/02/01 08:21:28;;;;;;;6.63;3.00;;;;;;;;;;5028697;28;19964;-48
2022/02/01 08:23:54;;;;;;;7.68;3.60;;;;;;;;;;5029029;28;20421;-50
2022/02/01 08:26:21;;;;;;;6.90;3.17;;;;;;;;;;5028614;28;20072;-47
2022/02/01 08:28:48;;;;;;;7.38;3.10;;;;;;;;;;5028322;28;20060;-48
2022/02/01 08:31:16;;;;;;;4.75;2.60;;;;;;;;;;5028344;28;20067;-49
2022/02/01 08:33:42;;;;;;;4.38;2.08;;;;;;;;;;5028736;28;20691;-49
2022/02/01 08:36:08;;;;;;;4.32;2.10;;;;;;;;;;5028817;28;20032;-49
2022/02/01 08:38:35;;;;;;;4.20;2.15;;;;;;;;;;5028700;28;20040;-48
2022/02/01 08:41:01;;;;;;;4.57;1.88;;;;;;;;;;5028878;28;20547;-49
2022/02/01 08:43:28;;;;;;;3.75;1.80;;;;;;;;;;5028297;28;20501;-47
2022/02/01 08:45:55;;;;;;;2.90;1.65;;;;;;;;;;5028554;28;20033;-47
2022/02/01 08:48:21;;;;;;;3.75;1.75;;;;;;;;;;5026910;28;20036;-48
2022/02/01 08:50:47;;;;;;;3.22;1.80;;;;;;;;;;5028328;28;20393;-47
2022/02/01 08:53:22;;;;;;;2.95;1.35;;;;;;;;;;5028324;28;20033;-48
2022/02/01 08:58:17;;;;;;;4.65;1.45;;;;;;;;;;5027716;28;20559;-50
2022/02/01 09:00:43;;;;;;;2.70;1.50;;;;;;;;;;5028096;28;20100;-48
2022/02/01 09:03:11;;;;;;;2.08;1.00;;;;;;;;;;5028319;28;20034;-48
2022/02/01 09:05:40;;;;;;;1.10;0.98;;;;;;;;;;5028948;28;20497;-47
2022/02/01 09:08:06;;;;;;;3.03;1.13;;;;;;;;;;5028608;28;20497;-50
2022/02/01 09:10:32;;;;;;;2.00;1.00;;;;;;;;;;5027569;28;21071;-49
2022/02/01 09:12:59;;;;;;;2.38;0.90;;;;;;;;;;5027872;28;20034;-47
2022/02/01 09:15:28;;;;;;;3.05;1.30;;;;;;;;;;5027565;28;20029;-46
2022/02/01 09:17:56;;;;;;;1.52;0.82;;;;;;;;;;5027851;28;20119;-49
2022/02/01 09:20:22;;;;;;;3.33;0.88;;;;;;;;;;5027665;28;20105;-49
2022/02/01 09:22:49;;;;;;;2.50;1.05;;;;;;;;;;5027792;28;20049;-48
2022/02/01 09:25:17;;;;;;;1.92;0.80;;;;;;;;;;5027520;28;20017;-48
2022/02/01 09:27:48;;;;;;;1.63;0.80;;;;;;;;;;5027377;28;20138;-47
2022/02/01 09:30:14;;;;;;;2.22;0.85;;;;;;;;;;5027330;28;21202;-47
2022/02/01 09:32:41;;;;;;;2.72;1.15;;;;;;;;;;5026928;28;20041;-46
2022/02/01 09:35:07;;;;;;;2.38;0.90;;;;;;;;;;5027957;28;20031;-47
2022/02/01 09:37:33;;;;;;;1.88;0.90;;;;;;;;;;5027715;28;20047;-47
2022/02/01 09:39:59;;;;;;;3.40;1.25;;;;;;;;;;5027168;28;20037;-49
2022/02/01 09:42:27;;;;;;;2.47;1.10;;;;;;;;;;5026605;28;20033;-47
2022/02/01 09:44:56;;;;;;;1.98;1.20;;;;;;;;;;5027001;28;20524;-47
2022/02/01 09:47:35;;;;;;;2.08;0.98;;;;;;;;;;5026571;28;20040;-50
2022/02/01 09:50:02;;;;;;;3.60;1.00;;;;;;;;;;5027007;28;20112;-48
2022/02/01 09:52:30;;;;;;;1.92;0.80;;;;;;;;;;5027200;28;20724;-47
2022/02/01 09:54:56;;;;;;;4.45;1.15;;;;;;;;;;5026972;28;20013;-48
2022/02/01 09:57:22;;;;;;;2.10;1.10;;;;;;;;;;5030800;28;20025;-48
2022/02/01 09:59:56;;;;;;;3.40;0.90;;;;;;;;;;5044364;28;20779;-48
2022/02/01 10:02:34;;;;;;;3.88;1.40;;;;;;;;;;5042768;28;20453;-48
2022/02/01 10:05:05;;;;;;;3.95;1.00;;;;;;;;;;5044646;28;20033;-50
2022/02/01 10:07:31;;;;;;;1.85;0.90;;;;;;;;;;5046067;28;20072;-47
2022/02/01 10:10:01;;;;;;;3.38;1.20;;;;;;;;;;5046450;28;20082;-48
2022/02/01 10:12:30;;;;;;;3.05;0.90;;;;;;;;;;5033845;28;20430;-47
2022/02/01 10:15:10;;;;;;;1.75;0.98;;;;;;;;;;5043650;28;20027;-50
2022/02/01 10:17:46;;;;;;;3.22;1.17;;;;;;;;;;5046840;28;20021;-47
2022/02/01 10:20:12;;;;;;;3.17;1.10;;;;;;;;;;5046398;28;20020;-48
2022/02/01 10:22:38;;;;;;;4.18;1.00;;;;;;;;;;5041746;28;20048;-48
2022/02/01 10:25:06;;;;;;;1.92;1.00;;;;;;;;;;5033337;28;20507;-47
2022/02/01 10:27:34;;;;;;;1.33;0.90;;;;;;;;;;5045559;28;20033;-48
2022/02/01 10:35:26;;;;;;;3.15;1.10;;;;;;;;;;5027522;28;20049;-48
2022/02/01 10:38:11;;;;;;;6.70;1.90;;;;;;;;;;5027123;28;20039;-47
2022/02/01 10:40:38;;;;;;;5.03;1.58;;;;;;;;;;5027780;28;20081;-47
2022/02/01 10:43:15;;;;;;;7.43;1.92;;;;;;;;;;5027628;28;20052;-47
2022/02/01 10:45:44;;;;;;;3.85;1.67;;;;;;;;;;5027154;28;20022;-47
2022/02/01 10:48:21;;;;;;;2.83;1.33;;;;;;;;;;5027300;28;20034;-47
2022/02/01 10:50:59;;;;;;;3.22;1.58;;;;;;;;;;5036018;28;20025;-48
2022/02/01 10:53:25;;;;;;;3.50;1.20;;;;;;;;;;5039897;28;20527;-50
2022/02/01 10:55:52;;;;;;;4.47;1.33;;;;;;;;;;5048986;28;20499;-48
2022/02/01 10:58:18;;;;;;;3.63;1.58;;;;;;;;;;5050082;28;20111;-49
2022/02/01 11:00:44;;;;;;;4.38;1.63;;;;;;;;;;5049735;28;20020;-49
2022/02/01 11:03:12;;;;;;;6.97;1.63;;;;;;;;;;5062439;28;20032;-50
2022/02/01 11:05:39;;;;;;;5.75;1.38;;;;;;;;;;5048738;28;20025;-46
2022/02/01 11:08:06;;;;;;;3.88;1.20;;;;;;;;;;5044617;28;20048;-48
2022/02/01 11:10:32;;;;;;;5.28;1.50;;;;;;;;;;5046441;28;21023;-50
2022/02/01 11:13:10;;;;;;;3.25;1.20;;;;;;;;;;5029785;28;20083;-49
2022/02/01 11:15:36;;;;;;;2.17;1.27;;;;;;;;;;5027243;28;20113;-47
2022/02/01 11:18:28;;;;;;;6.28;1.55;;;;;;;;;;5026816;28;20030;-48
2022/02/01 11:21:09;;;;;;;7.15;2.38;;;;;;;;;;5030870;28;20037;-47
2022/02/01 11:24:23;;;;;;;6.28;2.40;;;;;;;;;;5030234;28;20029;-50
2022/02/01 11:26:27;;;;;;;4.00;1.77;;;;;;;;;;5035434;28;20088;-48
2022/02/01 11:31:29;;;;;;;2.25;1.10;;;;;;;;;;5043680;28;20029;-48
2022/02/01 11:33:56;;;;;;;5.43;1.70;;;;;;;;;;5049528;28;20037;-48
2022/02/01 11:36:22;;;;;;;3.35;1.50;;;;;;;;;;5049479;28;20619;-49
2022/02/01 11:38:52;;;;;;;4.72;1.50;;;;;;;;;;5049617;28;20036;-50
2022/02/01 11:41:19;;;;;;;3.80;1.30;;;;;;;;;;5048989;28;20456;-50
2022/02/01 11:43:46;;;;;;;2.53;1.30;;;;;;;;;;5049427;28;20017;-49
2022/02/01 11:46:18;;;;;;;3.65;1.30;;;;;;;;;;5048660;28;20079;-46
2022/02/01 11:48:50;;;;;;;3.53;1.35;;;;;;;;;;5049330;28;20071;-47
2022/02/01 11:51:16;;;;;;;3.08;1.10;;;;;;;;;;5048783;28;20032;-49
2022/02/01 11:53:44;;;;;;;2.95;1.20;;;;;;;;;;5049176;28;20036;-48
2022/02/01 11:56:11;;;;;;;4.50;1.30;;;;;;;;;;5034654;28;20030;-49
2022/02/01 11:58:42;;;;;;;1.60;0.80;;;;;;;;;;5029754;28;20037;-51
2022/02/01 12:01:09;;;;;;;2.58;1.15;;;;;;;;;;5034077;28;20120;-50
2022/02/01 12:03:39;;;;;;;2.90;1.00;;;;;;;;;;5030463;28;20113;-44
2022/02/01 12:06:09;;;;;;;3.58;1.27;;;;;;;;;;5029696;28;20021;-46
2022/02/01 12:08:37;;;;;;;5.10;1.75;;;;;;;;;;5029301;28;20052;-45
2022/02/01 12:11:04;;;;;;;3.15;1.30;;;;;;;;;;5028809;28;20100;-48
2022/02/01 12:13:31;;;;;;;4.20;1.15;;;;;;;;;;5028902;28;20405;-47
2022/02/01 12:15:59;;;;;;;3.80;1.95;;;;;;;;;;5028993;28;20021;-46
2022/02/01 12:18:25;;;;;;;3.95;1.70;;;;;;;;;;5028703;28;20029;-50
2022/02/01 12:21:11;;;;;;;4.63;1.70;;;;;;;;;;5028747;28;20021;-47
2022/02/01 12:23:37;;;;;;;2.83;1.50;;;;;;;;;;5028600;28;20026;-46
2022/02/01 12:26:03;;;;;;;2.90;1.48;;;;;;;;;;5027774;28;20084;-47
2022/02/01 12:28:30;;;;;;;3.53;1.50;;;;;;;;;;5027553;28;20033;-46
2022/02/01 12:31:10;;;;;;;2.10;1.20;;;;;;;;;;5027478;28;20021;-47
2022/02/01 12:33:39;;;;;;;3.42;1.23;;;;;;;;;;5027186;28;20393;-47
2022/02/01 12:36:05;;;;;;;2.00;1.17;;;;;;;;;;5028912;28;20029;-46
2022/02/01 12:38:31;;;;;;;4.35;1.33;;;;;;;;;;5028450;28;20063;-49
2022/02/01 12:41:10;;;;;;;2.33;1.00;;;;;;;;;;5028398;28;20021;-47
2022/02/01 12:43:54;;;;;;;3.67;1.00;;;;;;;;;;5028749;28;20100;-47
2022/02/01 12:46:42;;;;;;;3.17;1.10;;;;;;;;;;5028191;28;20021;-47
2022/02/01 12:49:08;;;;;;;3.00;1.00;;;;;;;;;;5028289;28;20441;-47
2022/02/01 12:51:50;;;;;;;2.75;1.00;;;;;;;;;;5028513;28;20116;-46
2022/02/01 12:54:26;;;;;;;2.67;1.10;;;;;;;;;;5026311;28;20512;-47
2022/02/01 12:57:03;;;;;;;1.70;1.10;;;;;;;;;;5028079;28;20465;-47
2022/02/01 12:59:39;;;;;;;2.50;1.08;;;;;;;;;;5030844;28;20124;-46
2022/02/01 13:02:06;;;;;;;2.05;0.93;;;;;;;;;;5028378;28;20444;-44
2022/02/01 13:04:32;;;;;;;2.60;1.20;;;;;;;;;;5027893;28;20060;-44
2022/02/01 13:06:59;;;;;;;1.70;1.20;;;;;;;;;;5027782;28;20028;-44
2022/02/01 13:15:06;;;;;;;3.40;1.30;;;;;;;;;;5027925;28;20059;-45
2022/02/01 13:20:11;;;;;;;4.45;1.45;;;;;;;;;;5028067;28;20871;-46
2022/02/01 13:22:37;;;;;;;3.30;1.38;;;;;;;;;;5028064;28;20037;-47
2022/02/01 13:25:08;;;;;;;3.03;1.38;;;;;;;;;;5040431;28;20040;-45
2022/02/01 13:27:35;;;;;;;3.85;1.25;;;;;;;;;;5043306;28;20021;-48
2022/02/01 13:30:06;;;;;;;2.17;1.10;;;;;;;;;;5046555;28;20534;-48
2022/02/01 13:32:34;;;;;;;2.35;0.85;;;;;;;;;;5031856;28;20421;-47
2022/02/01 13:35:05;;;;;;;3.50;1.20;;;;;;;;;;5035749;28;20413;-47
2022/02/01 13:37:31;;;;;;;3.08;1.27;;;;;;;;;;5041264;28;20079;-48
2022/02/01 13:39:59;;;;;;;4.38;1.70;;;;;;;;;;5040424;28;20029;-49
2022/02/01 13:42:29;;;;;;;2.88;1.50;;;;;;;;;;5024583;28;20097;-50
2022/02/01 13:45:03;;;;;;;7.70;2.95;;;;;;;;;;5024858;28;20116;-50
2022/02/01 13:47:33;;;;;;;6.32;2.17;;;;;;;;;;5035818;28;20489;-47
2022/02/01 13:49:59;;;;;;;5.85;2.10;;;;;;;;;;5025300;28;20080;-50
2022/02/01 13:52:26;;;;;;;4.50;1.90;;;;;;;;;;5024745;28;20071;-47
2022/02/01 13:54:53;;;;;;;5.28;2.33;;;;;;;;;;5024610;28;20029;-48
2022/02/01 13:57:21;;;;;;;4.30;2.00;;;;;;;;;;5024840;28;20579;-49
2022/02/01 13:59:48;;;;;;;4.07;1.85;;;;;;;;;;5026091;28;20037;-47
2022/02/01 14:02:25;;;;;;;4.40;1.90;;;;;;;;;;5024470;28;20032;-48
2022/02/01 14:05:03;;;;;;;6.50;2.05;;;;;;;;;;5024684;28;20092;-48
2022/02/01 14:10:40;;;;;;;5.22;2.15;;;;;;;;;;5037514;28;20102;-48
2022/02/01 14:34:37;;;;;;;3.40;1.70;;;;;;;;;;5024140;28;20036;-47
2022/02/01 14:37:13;;;;;;;3.53;2.00;;;;;;;;;;5024380;28;20037;-47
2022/02/01 14:45:10;;;;;;;3.75;1.60;;;;;;;;;;5043319;28;20036;-47
2022/02/01 14:47:38;;;;;;;3.05;1.55;;;;;;;;;;5041425;28;20051;-47
2022/02/01 14:50:04;;;;;;;2.20;1.40;;;;;;;;;;5026426;28;20112;-48
2022/02/01 14:52:33;;;;;;;3.17;1.48;;;;;;;;;;5024381;28;20021;-47
2022/02/01 14:55:06;;;;;;;3.03;1.92;;;;;;;;;;5025434;28;20026;-48
2022/02/01 15:06:40;;;;;;;;;;;;;;;;;;5044254;28;20479;-47
2022/02/01 15:11:47;;;;;;;;;;;;;;;;;;5044354;28;20032;-47
2022/02/01 15:14:13;;;;;;;11.25;4.95;;;;;;;;;;5042376;28;19932;-50
2022/02/01 15:16:39;;;;;;;10.10;5.13;;;;;;;;;;5044767;28;20214;-50
2022/02/01 15:19:06;;;;;;;11.38;5.40;;;;;;;;;;5043669;28;20029;-48
2022/02/01 15:21:33;;;;;;;8.57;4.20;;;;;;;;;;5043734;28;20035;-48
2022/02/01 15:23:59;;;;;;;7.68;3.78;;;;;;;;;;5039384;28;20017;-49
2022/02/01 15:26:25;;;;;;;6.28;3.30;;;;;;;;;;5022777;28;20500;-46
2022/02/01 15:28:52;;;;;;;5.75;3.00;;;;;;;;;;5024298;28;20029;-47
2022/02/01 15:31:20;;;;;;;7.78;2.80;;;;;;;;;;5025372;28;21396;-48
2022/02/01 15:33:47;;;;;;;5.30;2.33;;;;;;;;;;5027655;28;20570;-51
2022/02/01 15:36:14;;;;;;;5.15;2.00;;;;;;;;;;5023537;28;20105;-47
2022/02/01 15:38:44;;;;;;;3.13;1.75;;;;;;;;;;5023904;28;20030;-46
2022/02/01 15:55:43;;;;;;;8.75;3.40;;;;;;;;;;5033841;28;21171;-47
2022/02/01 15:58:05;;;;;;;3.70;1.80;;;;;;;;;;5023534;28;20033;-48
2022/02/01 16:00:34;;;;;;;3.47;1.85;;;;;;;;;;5023678;28;20036;-48
2022/02/01 16:03:07;;;;;;;4.75;2.00;;;;;;;;;;5035481;28;20543;-46
2022/02/01 16:05:33;;;;;;;2.90;1.60;;;;;;;;;;5044643;28;20028;-46
2022/02/01 16:08:00;;;;;;;5.20;2.13;;;;;;;;;;5026970;28;20055;-47
2022/02/01 16:12:58;;;;;;;4.28;2.05;;;;;;;;;;5027547;28;20128;-48
2022/02/01 16:15:25;;;;;;;5.20;2.25;;;;;;;;;;5026613;28;20108;-45
2022/02/01 16:17:51;;;;;;;4.65;2.10;;;;;;;;;;5027972;28;20032;-48
2022/02/01 16:20:17;;;;;;;5.18;2.05;;;;;;;;;;5045272;28;20498;-46
2022/02/01 16:22:44;;;;;;;5.63;2.33;;;;;;;;;;5046460;28;20025;-45
2022/02/01 16:25:11;;;;;;;5.20;2.60;;;;;;;;;;5046332;28;20222;-44
2022/02/01 16:27:37;;;;;;;5.65;2.03;;;;;;;;;;5046510;28;20708;-47
2022/02/01 16:30:21;;;;;;;5.07;2.95;;;;;;;;;;5045048;28;20040;-47
2022/02/01 16:32:47;;;;;;;4.93;2.40;;;;;;;;;;5046381;28;20083;-46
2022/02/01 16:35:16;;;;;;;3.75;2.00;;;;;;;;;;5046331;28;20032;-48
2022/02/01 16:37:42;;;;;;;4.00;1.75;;;;;;;;;;5046189;28;20029;-47
2022/02/01 16:40:10;;;;;;;3.33;1.95;;;;;;;;;;5045981;28;20103;-47
2022/02/01 16:42:40;;;;;;;2.88;1.50;;;;;;;;;;5046328;28;20017;-48
2022/02/01 16:45:08;;;;;;;2.78;1.70;;;;;;;;;;5043486;28;20033;-47
2022/02/01 16:47:36;;;;;;;2.25;1.25;;;;;;;;;;5035834;28;20074;-48
2022/02/01 16:50:04;;;;;;;5.93;1.52;;;;;;;;;;5042784;28;20036;-47
2022/02/01 16:52:34;;;;;;;4.38;1.60;;;;;;;;;;5038232;28;20107;-48
2022/02/01 16:55:08;;;;;;;2.50;1.45;;;;;;;;;;5047641;28;20480;-49
2022/02/01 16:57:45;;;;;;;4.68;1.67;;;;;;;;;;5028739;28;20075;-50
2022/02/01 17:00:14;;;;;;;4.20;1.83;;;;;;;;;;5026034;28;20032;-47
2022/02/01 17:02:40;;;;;;;4.88;2.25;;;;;;;;;;5026226;28;20136;-48
2022/02/01 17:05:06;;;;;;;4.72;1.98;;;;;;;;;;5027550;28;20508;-47
2022/02/01 17:07:32;;;;;;;6.93;2.63;;;;;;;;;;5028560;28;20140;-50
2022/02/01 17:10:00;;;;;;;4.75;2.13;;;;;;;;;;5029684;28;20112;-50
2022/02/01 17:12:49;;;;;;;7.63;2.70;;;;;;;;;;5051623;28;20108;-50
2022/02/01 17:23:07;;;;;;;4.65;2.20;;;;;;;;;;5034937;28;20036;-48
2022/02/01 17:25:33;;;;;;;3.92;1.80;;;;;;;;;;5045127;28;20033;-50
2022/02/01 17:27:59;;;;;;;6.15;2.58;;;;;;;;;;5029728;28;20031;-48
2022/02/01 17:30:26;;;;;;;6.95;2.33;;;;;;;;;;5034779;28;20164;-50
2022/02/01 17:32:52;;;;;;;6.63;2.55;;;;;;;;;;5036536;28;20112;-47
2022/02/01 17:35:18;;;;;;;7.50;3.00;;;;;;;;;;5036906;28;20081;-47
2022/02/01 17:37:44;;;;;;;8.13;2.38;;;;;;;;;;5032862;28;20034;-48
2022/02/01 17:40:11;;;;;;;6.20;2.60;;;;;;;;;;5027940;28;20374;-47
2022/02/01 17:42:37;;;;;;;6.40;2.28;;;;;;;;;;5027508;28;20632;-47
2022/02/01 17:45:04;;;;;;;8.85;2.53;;;;;;;;;;5035960;28;20538;-47